Terminal Aerodrome Forecast
Issued by NWS Buffalo, NY

Home | Current Version | Previous Version | Text Only | Print | Product List | Glossary On
Versions: 1 2 3 4 5 6 7 8 9 10 11 12 13 14 15 16 17 18 19 20 21 22 23 24 25 26 27
000
FTUS41 KBUF 292100 AAA
TAFROC
TAF AMD
KROC 292116Z 2921/3018 22010KT P6SM SCT200
     FM300000 18008KT P6SM BKN150
     FM300400 20012KT 3SM -SHSN OVC050
     FM300600 20014G22KT P6SM VCSH OVC040
     FM301200 26016G24KT P6SM VCSH OVC025=

USA.gov is the U.S. government's official web portal to all federal, state and local government web resources and services.